Time;durP1;ratioP1;P1;durP2;ratioP2;P2;SDS_P1;SDS_P2;PMS_P1;PMS_P2;Temp;Humidity;BMP_temperature;BMP_pressure;BME280_temperature;BME280_humidity;BME280_pressure;Samples;Min_cycle;Max_cycle;Signal;HPM_P1;HPM_P2
2023/11/11 00:01:51;;;;;;;3.67;1.23;;;7.40;82.40;;;;;;5051626;28;20597;-74
2023/11/11 00:04:17;;;;;;;3.97;1.20;;;7.40;82.40;;;;;;5050705;28;20546;-73
2023/11/11 00:06:43;;;;;;;2.00;1.30;;;7.40;82.40;;;;;;5052010;28;20427;-74
2023/11/11 00:09:10;;;;;;;4.80;1.40;;;7.40;82.40;;;;;;5051783;28;20272;-73
2023/11/11 00:11:36;;;;;;;3.17;1.20;;;7.40;82.50;;;;;;5051962;28;20215;-73
2023/11/11 00:14:02;;;;;;;2.80;1.20;;;7.30;82.80;;;;;;5052338;28;20435;-74
2023/11/11 00:16:30;;;;;;;1.93;1.17;;;7.30;83.00;;;;;;5055228;28;20449;-76
2023/11/11 00:18:56;;;;;;;2.73;1.50;;;7.30;82.80;;;;;;5060838;28;20493;-75
2023/11/11 00:21:22;;;;;;;2.53;1.10;;;7.30;83.00;;;;;;5065159;28;20434;-75
2023/11/11 00:23:47;;;;;;;4.43;1.40;;;7.30;83.00;;;;;;5071154;28;20973;-75
2023/11/11 00:26:13;;;;;;;3.37;1.40;;;7.30;83.00;;;;;;5070294;28;20211;-75
2023/11/11 00:28:41;;;;;;;2.23;1.47;;;7.30;83.10;;;;;;5074934;28;20184;-75
2023/11/11 00:31:08;;;;;;;2.90;1.10;;;7.30;83.30;;;;;;5067134;28;20510;-74
2023/11/11 00:33:34;;;;;;;6.63;1.60;;;7.30;83.40;;;;;;5054802;28;20458;-74
2023/11/11 00:36:04;;;;;;;3.17;1.27;;;7.30;83.80;;;;;;5064713;28;20503;-75
2023/11/11 00:38:30;;;;;;;1.10;0.80;;;7.30;84.00;;;;;;5064060;28;20437;-73
2023/11/11 00:40:56;;;;;;;2.43;1.37;;;7.30;83.80;;;;;;5074874;28;20467;-75
2023/11/11 00:43:22;;;;;;;2.37;1.27;;;7.30;84.00;;;;;;5072424;28;20771;-74
2023/11/11 00:45:47;;;;;;;2.77;1.33;;;7.30;84.30;;;;;;5074383;28;20486;-75
2023/11/11 00:48:13;;;;;;;3.77;1.03;;;7.30;84.30;;;;;;5063604;28;20191;-74
2023/11/11 00:50:38;;;;;;;2.23;0.80;;;7.30;84.10;;;;;;5065372;28;20637;-75
2023/11/11 00:53:04;;;;;;;1.50;1.00;;;7.30;83.80;;;;;;5058731;28;20318;-74
2023/11/11 00:55:30;;;;;;;2.63;1.20;;;7.40;83.30;;;;;;5058724;28;20667;-73
2023/11/11 00:57:56;;;;;;;1.90;1.13;;;7.40;83.40;;;;;;5077938;28;20184;-74
2023/11/11 01:00:22;;;;;;;3.17;1.10;;;7.40;83.70;;;;;;5077537;28;20429;-73
2023/11/11 01:02:50;;;;;;;1.20;0.90;;;7.40;83.80;;;;;;5065567;28;20226;-74
2023/11/11 01:05:16;;;;;;;1.87;1.00;;;7.50;83.70;;;;;;5067046;28;20212;-73
2023/11/11 01:07:41;;;;;;;1.63;0.97;;;7.50;83.80;;;;;;5054060;28;20530;-75
2023/11/11 01:10:08;;;;;;;1.73;0.83;;;7.50;84.40;;;;;;5071420;28;20183;-74
2023/11/11 01:12:34;;;;;;;1.03;0.80;;;7.40;84.70;;;;;;5066072;28;20236;-76
2023/11/11 01:15:00;;;;;;;1.50;0.90;;;7.30;84.70;;;;;;5066575;28;20976;-75
2023/11/11 01:17:26;;;;;;;1.73;1.00;;;7.30;84.90;;;;;;5062991;28;20426;-75
2023/11/11 01:19:52;;;;;;;3.33;1.03;;;7.30;84.90;;;;;;5056770;28;20195;-76
2023/11/11 01:22:19;;;;;;;1.00;0.70;;;7.40;84.70;;;;;;5064749;28;20458;-75
2023/11/11 01:24:45;;;;;;;1.77;0.67;;;7.40;84.70;;;;;;5066036;28;20208;-74
2023/11/11 01:27:12;;;;;;;5.73;0.97;;;7.40;84.60;;;;;;5073448;28;20441;-74
2023/11/11 01:29:38;;;;;;;1.23;0.70;;;7.50;84.40;;;;;;5065804;28;20437;-73
2023/11/11 01:32:05;;;;;;;1.40;0.70;;;7.50;84.40;;;;;;5060610;28;20426;-76
2023/11/11 01:34:31;;;;;;;2.50;0.87;;;7.50;84.30;;;;;;5053836;28;20443;-72
2023/11/11 01:36:56;;;;;;;2.60;0.90;;;7.60;83.60;;;;;;5066696;28;20498;-73
2023/11/11 01:39:22;;;;;;;1.77;0.70;;;7.60;83.10;;;;;;5075379;28;20286;-73
2023/11/11 01:41:48;;;;;;;3.63;0.83;;;7.70;82.40;;;;;;5073762;28;20200;-74
2023/11/11 01:44:13;;;;;;;1.10;0.63;;;7.90;80.80;;;;;;5072612;28;20710;-75
2023/11/11 01:46:40;;;;;;;1.47;0.80;;;7.90;79.70;;;;;;5083148;28;20183;-73
2023/11/11 01:49:06;;;;;;;0.90;0.73;;;8.00;79.50;;;;;;5082517;28;20191;-73
2023/11/11 01:51:32;;;;;;;1.07;0.77;;;8.00;79.60;;;;;;5073171;28;20476;-74
2023/11/11 01:53:59;;;;;;;0.77;0.57;;;8.00;79.70;;;;;;5074087;28;20504;-75
2023/11/11 01:56:25;;;;;;;0.90;0.60;;;8.00;79.50;;;;;;5069307;28;20422;-74
2023/11/11 01:58:51;;;;;;;1.40;0.90;;;7.90;79.50;;;;;;5068042;28;20999;-74
2023/11/11 02:01:17;;;;;;;1.00;0.70;;;7.90;79.90;;;;;;5069683;28;20901;-75
2023/11/11 02:03:43;;;;;;;0.83;0.70;;;7.90;78.90;;;;;;5068021;28;20552;-74
2023/11/11 02:06:09;;;;;;;1.70;0.90;;;8.00;79.30;;;;;;5068935;28;20191;-75
2023/11/11 02:08:36;;;;;;;0.80;0.60;;;8.00;79.30;;;;;;5070168;28;20195;-73
2023/11/11 02:11:05;;;;;;;1.83;0.90;;;8.00;78.90;;;;;;5072499;28;20472;-75
2023/11/11 02:13:35;;;;;;;0.80;0.70;;;8.00;77.70;;;;;;5072320;28;20446;-76
2023/11/11 02:16:05;;;;;;;0.70;0.50;;;8.10;77.00;;;;;;5071561;28;20548;-74
2023/11/11 02:18:31;;;;;;;1.40;0.70;;;8.10;76.80;;;;;;5072578;28;20438;-75
2023/11/11 02:20:57;;;;;;;0.60;0.40;;;8.10;76.10;;;;;;5065050;28;20423;-74
2023/11/11 02:23:38;;;;;;;1.20;0.70;;;8.00;76.70;;;;;;5058750;28;20491;-75
2023/11/11 02:26:04;;;;;;;3.00;1.00;;;8.00;76.40;;;;;;5063851;28;20431;-75
2023/11/11 02:28:31;;;;;;;2.10;0.60;;;8.00;76.10;;;;;;5035012;28;20427;-74
2023/11/11 02:30:57;;;;;;;1.03;0.60;;;7.90;76.20;;;;;;5057897;28;20438;-75
2023/11/11 02:33:24;;;;;;;1.00;0.60;;;7.90;76.20;;;;;;5052119;28;20993;-76
2023/11/11 02:35:50;;;;;;;2.20;0.50;;;7.90;75.50;;;;;;5053440;28;20454;-75
2023/11/11 02:38:15;;;;;;;4.07;0.70;;;7.80;76.10;;;;;;5067821;28;20480;-76
2023/11/11 02:40:41;;;;;;;1.70;0.70;;;7.70;75.90;;;;;;5053394;28;20454;-73
2023/11/11 02:43:07;;;;;;;1.90;0.90;;;7.70;76.20;;;;;;5065555;28;20539;-75
2023/11/11 02:45:33;;;;;;;0.80;0.60;;;7.50;77.70;;;;;;5067273;28;20281;-75
2023/11/11 02:48:03;;;;;;;1.10;0.57;;;7.40;79.20;;;;;;5055903;28;20434;-77
2023/11/11 02:50:28;;;;;;;1.07;0.70;;;7.20;80.60;;;;;;5070241;28;20625;-76
2023/11/11 02:52:54;;;;;;;1.20;0.60;;;7.10;81.40;;;;;;5062989;28;20895;-76
2023/11/11 02:55:20;;;;;;;0.70;0.60;;;7.00;82.20;;;;;;5071099;28;20206;-76
2023/11/11 02:57:46;;;;;;;0.90;0.60;;;7.00;82.50;;;;;;5072488;28;21039;-74
2023/11/11 03:00:14;;;;;;;0.90;0.60;;;6.90;82.80;;;;;;5072496;28;20430;-76
2023/11/11 03:02:40;;;;;;;2.50;0.80;;;6.90;83.40;;;;;;5054696;28;20474;-74
2023/11/11 03:05:07;;;;;;;0.70;0.50;;;6.90;83.60;;;;;;5054340;28;20443;-74
2023/11/11 03:07:33;;;;;;;0.90;0.50;;;6.90;83.70;;;;;;5051878;28;20443;-75
2023/11/11 03:10:05;;;;;;;1.20;0.90;;;7.00;83.70;;;;;;5051100;28;20465;-75
2023/11/11 03:12:32;;;;;;;1.10;0.60;;;7.00;83.70;;;;;;5063249;28;20180;-75
2023/11/11 03:14:59;;;;;;;1.57;0.80;;;7.00;83.40;;;;;;5063856;28;20747;-75
2023/11/11 03:17:29;;;;;;;1.77;0.80;;;7.10;83.30;;;;;;5059625;28;20492;-76
2023/11/11 03:19:59;;;;;;;0.80;0.67;;;7.20;83.40;;;;;;5041030;28;20990;-76
2023/11/11 03:22:24;;;;;;;0.93;0.70;;;7.20;83.40;;;;;;5067565;28;20473;-74
2023/11/11 03:24:50;;;;;;;1.33;0.90;;;7.30;83.30;;;;;;5068700;28;20494;-74
2023/11/11 03:27:16;;;;;;;1.10;0.90;;;7.40;82.80;;;;;;5070926;28;20187;-73
2023/11/11 03:29:41;;;;;;;0.97;0.80;;;7.40;82.10;;;;;;5069927;28;20522;-74
2023/11/11 03:32:07;;;;;;;0.83;0.63;;;7.50;81.10;;;;;;5051544;28;20272;-76
2023/11/11 03:34:33;;;;;;;1.30;0.90;;;7.60;80.90;;;;;;5060492;28;20235;-75
2023/11/11 03:36:59;;;;;;;1.10;0.80;;;7.70;79.90;;;;;;5058006;28;20191;-75
2023/11/11 03:39:25;;;;;;;4.13;1.10;;;7.70;79.20;;;;;;5060993;28;20628;-75
2023/11/11 03:41:51;;;;;;;1.07;0.80;;;7.80;79.50;;;;;;5064356;28;20295;-75
2023/11/11 03:44:16;;;;;;;2.47;1.03;;;7.80;79.70;;;;;;5050166;28;20522;-75
2023/11/11 03:46:42;;;;;;;2.70;1.00;;;7.80;78.90;;;;;;5051428;28;20447;-75
2023/11/11 03:49:08;;;;;;;1.47;1.03;;;7.80;79.00;;;;;;5057437;28;20188;-75
2023/11/11 03:51:33;;;;;;;3.47;0.97;;;7.80;79.20;;;;;;5071523;28;20636;-75
2023/11/11 03:53:59;;;;;;;1.80;1.07;;;7.80;78.40;;;;;;5053033;28;20204;-75
2023/11/11 03:56:25;;;;;;;1.47;0.90;;;7.80;78.90;;;;;;5061529;28;20187;-75
2023/11/11 03:58:51;;;;;;;1.30;1.00;;;7.80;79.20;;;;;;5055445;28;20181;-74
2023/11/11 04:01:16;;;;;;;1.30;0.97;;;7.80;78.30;;;;;;5052559;28;20196;-76
2023/11/11 04:03:43;;;;;;;2.70;1.30;;;7.80;78.40;;;;;;5069960;28;20311;-75
2023/11/11 04:06:14;;;;;;;1.43;1.20;;;7.80;78.60;;;;;;5070174;28;20422;-75
2023/11/11 04:08:40;;;;;;;1.63;0.80;;;7.80;78.60;;;;;;5054243;28;20427;-77
2023/11/11 04:11:09;;;;;;;1.90;0.70;;;7.80;78.90;;;;;;5051147;28;20426;-75
2023/11/11 04:13:39;;;;;;;1.40;1.20;;;7.70;78.90;;;;;;5050710;28;20212;-75
2023/11/11 04:16:06;;;;;;;0.93;0.67;;;7.70;79.30;;;;;;5063275;28;20583;-75
2023/11/11 04:18:34;;;;;;;1.17;0.93;;;7.70;79.90;;;;;;5069098;28;20434;-77
2023/11/11 04:21:00;;;;;;;1.13;0.90;;;7.60;80.80;;;;;;5066254;28;20879;-76
2023/11/11 04:23:28;;;;;;;1.30;0.93;;;7.50;81.90;;;;;;5056248;28;20492;-75
2023/11/11 04:25:58;;;;;;;1.53;1.00;;;7.40;82.50;;;;;;5054871;28;20415;-75
2023/11/11 04:28:24;;;;;;;2.37;1.50;;;7.20;83.10;;;;;;5033212;28;20426;-75
2023/11/11 04:30:50;;;;;;;1.70;0.93;;;7.20;83.80;;;;;;5058745;28;20517;-76
2023/11/11 04:33:16;;;;;;;2.63;1.37;;;7.10;84.70;;;;;;5067939;28;20600;-75
2023/11/11 04:35:42;;;;;;;2.03;1.40;;;7.00;84.70;;;;;;5060479;28;20871;-75
2023/11/11 04:38:08;;;;;;;1.30;1.00;;;7.00;85.20;;;;;;5051908;28;20185;-76
2023/11/11 04:40:36;;;;;;;3.30;1.40;;;6.90;85.50;;;;;;5050706;28;20536;-76
2023/11/11 04:43:02;;;;;;;1.33;1.10;;;6.90;85.50;;;;;;5056243;28;20516;-76
2023/11/11 04:45:29;;;;;;;1.97;1.27;;;6.90;85.90;;;;;;5056786;28;20449;-77
2023/11/11 04:47:54;;;;;;;2.80;1.63;;;6.90;85.30;;;;;;5070433;28;20438;-76
2023/11/11 04:50:21;;;;;;;1.90;1.30;;;6.90;85.20;;;;;;5070176;28;20429;-76
2023/11/11 04:52:46;;;;;;;3.27;1.60;;;7.00;85.00;;;;;;5051579;28;20669;-76
2023/11/11 04:55:12;;;;;;;4.13;1.00;;;7.00;85.00;;;;;;5051015;28;20472;-76
2023/11/11 04:57:37;;;;;;;2.37;1.40;;;7.10;84.60;;;;;;5050633;28;20252;-76
2023/11/11 05:00:06;;;;;;;2.37;1.77;;;7.10;84.90;;;;;;5057418;28;20184;-76
2023/11/11 05:02:32;;;;;;;3.70;1.83;;;7.10;85.00;;;;;;5062084;28;20224;-76
2023/11/11 05:04:58;;;;;;;2.00;1.30;;;7.10;85.00;;;;;;5066545;28;21087;-76
2023/11/11 05:07:23;;;;;;;3.63;1.57;;;7.10;84.60;;;;;;5066283;28;20687;-76
2023/11/11 05:09:49;;;;;;;2.20;1.67;;;7.20;84.60;;;;;;5068667;28;20487;-76
2023/11/11 05:12:15;;;;;;;4.93;1.60;;;7.20;84.10;;;;;;5061878;28;20187;-75
2023/11/11 05:14:41;;;;;;;2.00;1.50;;;7.20;84.40;;;;;;5072788;28;20213;-76
2023/11/11 05:17:10;;;;;;;4.00;1.80;;;7.20;84.30;;;;;;5074912;28;20506;-76
2023/11/11 05:19:35;;;;;;;4.60;1.60;;;7.20;84.40;;;;;;5070111;28;20776;-75
2023/11/11 05:22:05;;;;;;;1.63;1.20;;;7.20;84.30;;;;;;5065684;28;20536;-75
2023/11/11 05:24:31;;;;;;;2.70;1.77;;;7.10;84.10;;;;;;5066618;28;20203;-77
2023/11/11 05:26:57;;;;;;;2.17;1.70;;;7.10;84.10;;;;;;5067754;28;20953;-75
2023/11/11 05:29:23;;;;;;;3.93;1.73;;;7.10;83.60;;;;;;5053675;28;20423;-75
2023/11/11 05:31:48;;;;;;;7.27;1.50;;;7.10;83.70;;;;;;5054735;28;20206;-75
2023/11/11 05:34:15;;;;;;;4.33;2.27;;;7.10;83.60;;;;;;5049057;28;20200;-75
2023/11/11 05:36:42;;;;;;;2.00;1.33;;;7.10;83.70;;;;;;5065616;28;20233;-76
2023/11/11 05:39:09;;;;;;;3.47;2.00;;;7.00;83.70;;;;;;5075118;28;20429;-75
2023/11/11 05:41:37;;;;;;;2.90;1.80;;;7.00;83.40;;;;;;5071348;28;20537;-76
2023/11/11 05:44:06;;;;;;;2.93;1.90;;;7.00;83.30;;;;;;5060465;28;20447;-76
2023/11/11 05:46:31;;;;;;;2.27;1.60;;;7.00;83.60;;;;;;5062328;28;20565;-75
2023/11/11 05:48:57;;;;;;;4.57;1.77;;;7.00;83.40;;;;;;5066959;28;20450;-75
2023/11/11 05:51:24;;;;;;;3.00;1.70;;;7.00;83.40;;;;;;5073446;28;20186;-76
2023/11/11 05:53:50;;;;;;;3.27;2.10;;;6.90;83.70;;;;;;5056348;28;20211;-75
2023/11/11 05:56:16;;;;;;;3.13;2.23;;;6.90;83.40;;;;;;5052755;28;20412;-76
2023/11/11 05:58:42;;;;;;;3.57;1.73;;;6.90;83.70;;;;;;5053755;28;20226;-75
2023/11/11 06:01:08;;;;;;;3.30;1.80;;;6.90;84.00;;;;;;5053832;28;20485;-75
2023/11/11 06:03:34;;;;;;;3.10;2.00;;;6.90;83.70;;;;;;5067915;28;20577;-75
2023/11/11 06:06:02;;;;;;;5.63;2.00;;;6.90;83.70;;;;;;5069951;28;20184;-76
2023/11/11 06:08:28;;;;;;;3.50;1.93;;;6.90;83.40;;;;;;5072632;28;20257;-75
2023/11/11 06:10:54;;;;;;;2.57;1.60;;;6.90;82.70;;;;;;5073958;28;20430;-75
2023/11/11 06:13:20;;;;;;;2.50;1.90;;;7.00;82.70;;;;;;5069417;28;20212;-75
2023/11/11 06:15:45;;;;;;;2.23;1.80;;;7.00;82.80;;;;;;5064402;28;20181;-77
2023/11/11 06:18:11;;;;;;;3.17;1.80;;;7.00;82.80;;;;;;5064194;28;20445;-76
2023/11/11 06:20:36;;;;;;;2.60;1.83;;;7.00;82.70;;;;;;5065844;28;20196;-77
2023/11/11 06:23:02;;;;;;;3.83;2.00;;;7.00;82.50;;;;;;5073835;28;20210;-76
2023/11/11 06:25:28;;;;;;;2.83;2.13;;;7.00;82.50;;;;;;5061116;28;20230;-75
2023/11/11 06:27:54;;;;;;;2.87;1.97;;;7.00;82.40;;;;;;5061758;28;20202;-76
2023/11/11 06:30:20;;;;;;;6.40;2.60;;;7.00;82.40;;;;;;5070741;28;20229;-76
2023/11/11 06:32:52;;;;;;;3.73;1.53;;;7.10;82.10;;;;;;5068210;28;20275;-75
2023/11/11 06:35:22;;;;;;;3.27;1.87;;;7.10;81.80;;;;;;5071679;28;20461;-75
2023/11/11 06:37:48;;;;;;;3.17;1.60;;;7.10;81.70;;;;;;5066886;28;20442;-76
2023/11/11 06:40:14;;;;;;;2.53;1.73;;;7.10;81.90;;;;;;5073461;28;20473;-75
2023/11/11 06:42:40;;;;;;;2.50;1.80;;;7.10;81.80;;;;;;5070753;28;20477;-77
2023/11/11 06:45:06;;;;;;;2.50;1.93;;;7.00;81.70;;;;;;5069120;28;20276;-76
2023/11/11 06:47:32;;;;;;;2.87;2.00;;;7.10;81.80;;;;;;5072426;28;20191;-75
2023/11/11 06:49:59;;;;;;;6.03;2.13;;;7.10;82.10;;;;;;5066550;28;20905;-77
2023/11/11 06:52:24;;;;;;;2.90;2.03;;;7.10;81.50;;;;;;5059322;28;20867;-76
2023/11/11 06:54:50;;;;;;;2.60;1.80;;;7.10;81.70;;;;;;5056070;28;20549;-75
2023/11/11 06:57:16;;;;;;;2.30;1.50;;;7.20;81.70;;;;;;5064521;28;20180;-75
2023/11/11 06:59:42;;;;;;;1.67;1.10;;;7.20;80.60;;;;;;5067216;28;20188;-75
2023/11/11 07:02:12;;;;;;;3.67;1.70;;;7.20;79.70;;;;;;5067646;28;20523;-75
2023/11/11 07:04:42;;;;;;;2.23;1.70;;;7.20;80.30;;;;;;5079450;28;20204;-76
2023/11/11 07:07:07;;;;;;;4.17;1.90;;;7.20;80.80;;;;;;5071515;28;20954;-75
2023/11/11 07:09:38;;;;;;;2.40;1.63;;;7.30;80.30;;;;;;5070780;28;20484;-75
2023/11/11 07:12:04;;;;;;;5.67;1.93;;;7.30;80.20;;;;;;5073051;28;20196;-77
2023/11/11 07:14:30;;;;;;;1.67;1.27;;;7.30;80.30;;;;;;5073851;28;21267;-76
2023/11/11 07:16:56;;;;;;;4.60;1.87;;;7.30;80.50;;;;;;5062237;28;20442;-77
2023/11/11 07:19:21;;;;;;;4.20;1.63;;;7.30;80.30;;;;;;5065790;28;20183;-75
2023/11/11 07:21:47;;;;;;;2.60;1.93;;;7.30;80.20;;;;;;5063628;28;20465;-75
2023/11/11 07:24:13;;;;;;;2.40;1.40;;;7.30;80.30;;;;;;5072434;28;20261;-76
2023/11/11 07:26:41;;;;;;;2.60;1.80;;;7.30;80.90;;;;;;5060751;28;20195;-77
2023/11/11 07:29:06;;;;;;;3.67;1.50;;;7.30;80.80;;;;;;5053362;28;20192;-76
2023/11/11 07:31:32;;;;;;;2.47;1.33;;;7.30;80.80;;;;;;5034957;28;20529;-76
2023/11/11 07:34:00;;;;;;;3.83;1.70;;;7.30;80.50;;;;;;5054503;28;20680;-76
2023/11/11 07:36:26;;;;;;;2.03;1.27;;;7.40;80.80;;;;;;5070958;28;20725;-75
2023/11/11 07:38:52;;;;;;;6.23;1.40;;;7.30;80.20;;;;;;5078236;28;20457;-76
2023/11/11 07:41:20;;;;;;;1.70;1.13;;;7.20;80.00;;;;;;5078597;28;20434;-76
2023/11/11 07:43:46;;;;;;;1.57;1.20;;;7.20;80.60;;;;;;5057845;28;20216;-76
2023/11/11 07:46:17;;;;;;;1.30;1.20;;;7.20;80.50;;;;;;5052809;28;20810;-77
2023/11/11 07:48:43;;;;;;;1.10;0.80;;;7.20;80.80;;;;;;5036237;28;20230;-76
2023/11/11 07:51:10;;;;;;;5.50;1.50;;;7.10;80.50;;;;;;5052011;28;20856;-75
2023/11/11 07:53:36;;;;;;;2.93;1.50;;;7.10;80.80;;;;;;5064818;28;20533;-76
2023/11/11 07:56:02;;;;;;;1.67;1.40;;;7.10;80.60;;;;;;5053465;28;20427;-76
2023/11/11 07:58:29;;;;;;;1.30;1.10;;;7.10;80.00;;;;;;5079891;28;20270;-76
2023/11/11 08:00:56;;;;;;;2.93;1.40;;;7.10;79.60;;;;;;5063120;28;20430;-77
2023/11/11 08:03:24;;;;;;;2.27;1.70;;;7.10;79.60;;;;;;5069892;28;20531;-78
2023/11/11 08:05:50;;;;;;;1.70;1.30;;;7.10;79.60;;;;;;5070697;28;20430;-77
2023/11/11 08:08:16;;;;;;;6.63;1.60;;;7.10;79.50;;;;;;5072450;28;20488;-76
2023/11/11 08:10:42;;;;;;;5.50;1.90;;;7.20;79.50;;;;;;5060910;28;21019;-77
2023/11/11 08:13:08;;;;;;;4.33;1.80;;;7.20;79.00;;;;;;5067232;28;20183;-77
2023/11/11 08:15:34;;;;;;;2.20;1.60;;;7.20;78.90;;;;;;5078023;28;20430;-77
2023/11/11 08:17:59;;;;;;;2.00;1.50;;;7.30;79.20;;;;;;5064885;28;20495;-77
2023/11/11 08:20:25;;;;;;;2.57;1.63;;;7.30;78.60;;;;;;5070547;28;20441;-77
2023/11/11 08:22:51;;;;;;;4.90;2.10;;;7.30;78.90;;;;;;5053230;28;20215;-78
2023/11/11 08:25:19;;;;;;;3.47;2.03;;;7.40;78.60;;;;;;5071806;28;20226;-76
2023/11/11 08:27:46;;;;;;;2.40;1.80;;;7.50;78.30;;;;;;5054346;28;20189;-78
2023/11/11 08:30:13;;;;;;;3.07;1.77;;;7.40;78.10;;;;;;5045693;28;20486;-77
2023/11/11 08:32:39;;;;;;;3.17;1.87;;;7.40;78.10;;;;;;5055491;28;20437;-77
2023/11/11 08:35:08;;;;;;;2.50;1.90;;;7.50;78.10;;;;;;5064532;28;20957;-78
2023/11/11 08:37:33;;;;;;;4.70;1.87;;;7.50;78.30;;;;;;5074591;28;20429;-79
2023/11/11 08:40:06;;;;;;;3.27;1.87;;;7.60;77.80;;;;;;5077097;28;20456;-77
2023/11/11 08:42:32;;;;;;;1.90;1.70;;;7.70;78.00;;;;;;5073879;28;20204;-76
2023/11/11 08:44:58;;;;;;;4.67;1.97;;;7.70;77.70;;;;;;5066402;28;20470;-77
2023/11/11 08:47:27;;;;;;;4.00;1.70;;;7.80;76.80;;;;;;5068535;28;20824;-77
2023/11/11 08:49:54;;;;;;;3.53;2.17;;;7.80;77.30;;;;;;5078634;28;20187;-78
2023/11/11 08:52:22;;;;;;;7.10;2.70;;;7.80;76.70;;;;;;5065332;28;20431;-78
2023/11/11 08:54:48;;;;;;;4.53;2.00;;;7.80;76.70;;;;;;5055921;28;20446;-77
2023/11/11 08:57:14;;;;;;;2.90;2.17;;;7.90;76.20;;;;;;5068292;28;20835;-77
2023/11/11 08:59:39;;;;;;;3.00;1.90;;;8.00;75.80;;;;;;5062036;28;20437;-78
2023/11/11 09:02:06;;;;;;;3.97;2.10;;;8.10;75.70;;;;;;5072517;28;20212;-79
2023/11/11 09:04:31;;;;;;;4.03;2.10;;;8.20;74.80;;;;;;5074985;28;20199;-77
2023/11/11 09:06:57;;;;;;;6.47;2.20;;;8.20;74.90;;;;;;5070699;28;20442;-77
2023/11/11 09:09:24;;;;;;;3.37;2.10;;;8.30;75.20;;;;;;5070887;28;20262;-77
2023/11/11 09:11:50;;;;;;;3.00;1.87;;;8.40;74.30;;;;;;5068843;28;20517;-77
2023/11/11 09:14:15;;;;;;;2.77;1.90;;;8.40;73.90;;;;;;5072722;28;20477;-77
2023/11/11 09:16:41;;;;;;;2.60;1.70;;;8.30;72.40;;;;;;5076720;28;20667;-77
2023/11/11 09:19:07;;;;;;;3.20;1.90;;;8.40;73.20;;;;;;5061516;28;20290;-77
2023/11/11 09:21:33;;;;;;;6.77;2.20;;;8.40;72.40;;;;;;5056522;28;20186;-77
2023/11/11 09:24:00;;;;;;;4.30;2.23;;;8.30;72.00;;;;;;5036123;28;20895;-77
2023/11/11 09:26:25;;;;;;;5.47;2.37;;;8.30;72.10;;;;;;5060142;28;20683;-78
2023/11/11 09:28:51;;;;;;;4.80;2.30;;;8.30;72.10;;;;;;5057583;28;20442;-78
2023/11/11 09:31:17;;;;;;;2.30;2.00;;;8.20;73.00;;;;;;5073203;28;20191;-76
2023/11/11 09:33:44;;;;;;;3.90;1.90;;;8.00;74.90;;;;;;5064610;28;20203;-78
2023/11/11 09:36:10;;;;;;;3.73;2.20;;;7.90;75.20;;;;;;5072842;28;20794;-77
2023/11/11 09:38:36;;;;;;;4.43;2.50;;;7.90;75.50;;;;;;5066736;28;20456;-80
2023/11/11 09:41:03;;;;;;;4.60;2.00;;;7.90;74.30;;;;;;5076240;28;20737;-75
2023/11/11 09:43:29;;;;;;;3.40;1.70;;;8.00;75.20;;;;;;5068604;28;20857;-77
2023/11/11 09:45:54;;;;;;;3.83;2.00;;;8.00;73.70;;;;;;5072238;28;21020;-78
2023/11/11 09:48:20;;;;;;;2.60;1.80;;;8.10;73.30;;;;;;5074141;28;20671;-76
2023/11/11 09:50:46;;;;;;;1.97;1.60;;;8.20;72.00;;;;;;5074587;28;20667;-78
2023/11/11 09:53:13;;;;;;;2.73;1.70;;;8.20;71.00;;;;;;5056791;28;20550;-78
2023/11/11 09:55:40;;;;;;;2.80;1.80;;;8.30;70.50;;;;;;5058537;28;20212;-78
2023/11/11 09:58:06;;;;;;;4.13;1.70;;;8.30;70.40;;;;;;5064792;28;20442;-77
2023/11/11 10:00:32;;;;;;;2.30;1.60;;;8.40;69.40;;;;;;5073835;28;20449;-78
2023/11/11 10:02:58;;;;;;;3.93;1.70;;;8.50;69.70;;;;;;5074409;28;20821;-77
2023/11/11 10:05:24;;;;;;;2.53;1.87;;;8.60;69.20;;;;;;5067535;28;20458;-76
2023/11/11 10:07:55;;;;;;;5.77;1.70;;;8.60;68.20;;;;;;5065623;28;20447;-77
2023/11/11 10:10:21;;;;;;;2.40;1.67;;;8.90;68.00;;;;;;5080758;28;20267;-77
2023/11/11 10:12:47;;;;;;;4.10;2.40;;;9.20;67.30;;;;;;5079844;28;20471;-77
2023/11/11 10:15:14;;;;;;;3.37;1.70;;;9.30;66.60;;;;;;5065586;28;20504;-78
2023/11/11 10:17:41;;;;;;;4.30;2.30;;;9.30;67.00;;;;;;5059412;28;20459;-78
2023/11/11 10:20:17;;;;;;;3.90;1.80;;;9.20;67.00;;;;;;5064869;28;20751;-78
2023/11/11 10:22:46;;;;;;;3.70;1.80;;;9.10;67.60;;;;;;5071105;28;20529;-77
2023/11/11 10:25:19;;;;;;;3.47;1.83;;;9.20;67.90;;;;;;5073349;28;20466;-76
2023/11/11 10:27:53;;;;;;;3.57;2.20;;;9.20;68.20;;;;;;5065479;28;20830;-76
2023/11/11 10:30:25;;;;;;;3.37;2.00;;;8.90;68.00;;;;;;5064857;28;20898;-76
2023/11/11 10:32:52;;;;;;;2.57;1.90;;;8.70;68.60;;;;;;5068235;28;20438;-77
2023/11/11 10:35:18;;;;;;;4.87;1.80;;;8.80;69.10;;;;;;5050023;28;20454;-76
2023/11/11 10:37:46;;;;;;;2.90;1.93;;;8.80;68.90;;;;;;5067059;28;20434;-75
2023/11/11 10:40:16;;;;;;;3.63;2.27;;;8.80;69.20;;;;;;5067213;28;20457;-77
2023/11/11 10:42:47;;;;;;;3.93;1.90;;;8.80;68.90;;;;;;5066963;28;20481;-76
2023/11/11 10:45:15;;;;;;;2.27;2.03;;;8.70;68.80;;;;;;5069506;28;20461;-78
2023/11/11 10:47:47;;;;;;;3.30;2.03;;;8.60;68.90;;;;;;5071101;28;20595;-76
2023/11/11 10:50:14;;;;;;;4.53;2.53;;;8.60;69.10;;;;;;5069801;28;20860;-76
2023/11/11 10:52:41;;;;;;;2.43;1.90;;;8.90;69.20;;;;;;5068673;28;20499;-77
2023/11/11 10:55:10;;;;;;;2.87;1.90;;;9.00;68.50;;;;;;5058870;28;20454;-76
2023/11/11 10:57:41;;;;;;;4.03;2.00;;;9.00;68.80;;;;;;5055741;28;20934;-77
2023/11/11 11:00:21;;;;;;;6.23;2.67;;;9.20;69.20;;;;;;5058748;28;20425;-77
2023/11/11 11:02:48;;;;;;;3.47;2.20;;;9.10;68.80;;;;;;5062920;28;20461;-77
2023/11/11 11:05:39;;;;;;;2.53;1.90;;;9.00;68.50;;;;;;5071382;28;20924;-79
2023/11/11 11:08:19;;;;;;;5.30;1.80;;;8.90;68.20;;;;;;5070008;28;20444;-77
2023/11/11 11:11:01;;;;;;;2.50;1.70;;;8.90;67.50;;;;;;5068045;28;20417;-77
2023/11/11 11:13:27;;;;;;;3.67;1.20;;;8.70;67.50;;;;;;5067510;28;20499;-77
2023/11/11 11:15:53;;;;;;;2.33;1.70;;;8.60;67.50;;;;;;5067629;28;20473;-77
2023/11/11 11:18:23;;;;;;;3.53;1.77;;;8.50;67.60;;;;;;5058269;28;20860;-78
2023/11/11 11:20:52;;;;;;;5.00;2.13;;;8.50;67.60;;;;;;5058346;28;20665;-76
2023/11/11 11:23:19;;;;;;;3.10;2.03;;;8.50;67.70;;;;;;5060866;28;20485;-77
2023/11/11 11:25:45;;;;;;;3.23;1.97;;;8.60;67.50;;;;;;5059758;28;20515;-78
2023/11/11 11:28:14;;;;;;;2.10;1.20;;;8.70;67.30;;;;;;5067108;28;20474;-78
2023/11/11 11:30:44;;;;;;;2.00;1.13;;;8.80;67.30;;;;;;5072952;28;20172;-76
2023/11/11 11:33:18;;;;;;;6.07;2.30;;;8.80;67.20;;;;;;5070794;28;20500;-77
2023/11/11 11:35:48;;;;;;;3.57;1.80;;;8.90;67.70;;;;;;5066588;28;20430;-77
2023/11/11 11:38:34;;;;;;;3.13;1.70;;;9.00;67.20;;;;;;5070372;28;20516;-77
2023/11/11 11:40:59;;;;;;;3.40;1.40;;;9.00;67.20;;;;;;5059824;28;20473;-77
2023/11/11 11:43:30;;;;;;;2.60;1.70;;;9.10;67.00;;;;;;5059588;28;20506;-77
2023/11/11 11:46:00;;;;;;;3.70;1.43;;;9.00;66.30;;;;;;5073030;28;20191;-77
2023/11/11 11:48:28;;;;;;;2.73;1.40;;;9.00;65.70;;;;;;5039926;28;20454;-77
2023/11/11 11:51:20;;;;;;;1.90;1.27;;;9.10;66.30;;;;;;5054582;28;20510;-78
2023/11/11 11:53:53;;;;;;;7.30;1.60;;;9.20;66.30;;;;;;5078786;28;20453;-77
2023/11/11 11:56:32;;;;;;;3.90;2.03;;;9.30;65.80;;;;;;5073124;28;20450;-77
2023/11/11 11:59:01;;;;;;;2.20;1.33;;;9.30;66.10;;;;;;5076836;28;20426;-79
2023/11/11 12:01:30;;;;;;;2.23;1.37;;;9.30;65.70;;;;;;5067636;28;20461;-77
2023/11/11 12:03:57;;;;;;;1.40;1.20;;;9.30;65.60;;;;;;5047058;28;20481;-79
2023/11/11 12:06:23;;;;;;;2.43;1.60;;;9.40;65.80;;;;;;5076943;28;20954;-77
2023/11/11 12:08:51;;;;;;;1.93;1.43;;;9.60;65.70;;;;;;5064237;28;20480;-79
2023/11/11 12:11:30;;;;;;;2.27;1.93;;;9.90;65.00;;;;;;5062002;28;20796;-76
2023/11/11 12:13:57;;;;;;;2.90;1.70;;;9.80;64.40;;;;;;5051055;28;21035;-77
2023/11/11 12:16:39;;;;;;;2.93;1.83;;;9.80;64.40;;;;;;5072875;28;20464;-78
2023/11/11 12:19:24;;;;;;;5.40;1.70;;;9.70;64.10;;;;;;5079992;28;20752;-77
2023/11/11 12:21:50;;;;;;;4.97;1.80;;;9.90;64.80;;;;;;5078337;28;20458;-76
2023/11/11 12:24:19;;;;;;;2.50;1.70;;;9.80;64.70;;;;;;5081118;28;20446;-76
2023/11/11 12:26:49;;;;;;;2.57;1.50;;;9.90;64.10;;;;;;5065045;28;20446;-76
2023/11/11 12:29:15;;;;;;;2.90;1.70;;;10.10;63.90;;;;;;5071860;28;20469;-77
2023/11/11 12:31:52;;;;;;;3.07;1.80;;;10.10;63.90;;;;;;5069674;28;21033;-77
2023/11/11 12:34:22;;;;;;;2.87;1.80;;;10.10;64.20;;;;;;5068860;28;20445;-76
2023/11/11 12:36:52;;;;;;;11.63;2.87;;;9.80;66.30;;;;;;5068851;28;20902;-76
2023/11/11 12:39:18;;;;;;;4.57;2.30;;;9.70;67.90;;;;;;5052966;28;20457;-78
2023/11/11 12:41:51;;;;;;;4.07;2.83;;;9.70;68.50;;;;;;5072807;28;20453;-77
2023/11/11 12:44:25;;;;;;;4.77;2.70;;;9.60;68.80;;;;;;5068992;28;20457;-77
2023/11/11 12:46:52;;;;;;;5.43;2.20;;;9.50;69.20;;;;;;5071676;28;20438;-75
2023/11/11 12:49:19;;;;;;;4.93;2.10;;;9.60;69.40;;;;;;5050086;28;20491;-77
2023/11/11 12:51:45;;;;;;;3.63;2.20;;;9.70;68.60;;;;;;5073987;28;20796;-77
2023/11/11 12:54:13;;;;;;;2.77;1.93;;;9.80;66.40;;;;;;5073894;28;20452;-76
2023/11/11 12:56:49;;;;;;;3.17;2.20;;;9.80;66.60;;;;;;5062529;28;20427;-77
2023/11/11 12:59:14;;;;;;;4.40;2.67;;;9.70;66.60;;;;;;5055108;28;20434;-75